Time;durP1;ratioP1;P1;durP2;ratioP2;P2;SDS_P1;SDS_P2;PMS_P1;PMS_P2;Temp;Humidity;BMP_temperature;BMP_pressure;BME280_temperature;BME280_humidity;BME280_pressure;Samples;Min_cycle;Max_cycle;Signal;HPM_P1;HPM_P2
2022/07/24 00:01:28;;;;;;;3.87;3.57;;;;;;;;;;4976130;28;20211;-73
2022/07/24 00:03:58;;;;;;;5.50;3.90;;;;;;;;;;4975861;28;20229;-73
2022/07/24 00:06:25;;;;;;;3.73;3.43;;;;;;;;;;4975685;28;20216;-73
2022/07/24 00:08:58;;;;;;;4.20;3.80;;;;;;;;;;4976134;28;20232;-73
2022/07/24 00:11:27;;;;;;;3.60;3.30;;;;;;;;;;4975568;28;20592;-73
2022/07/24 00:13:55;;;;;;;3.70;3.37;;;;;;;;;;4974598;28;20272;-73
2022/07/24 00:16:23;;;;;;;4.53;4.03;;;;;;;;;;4986811;28;20227;-73
2022/07/24 00:18:51;;;;;;;24.70;5.47;;;;;;;;;;4977618;28;20271;-73
2022/07/24 00:21:22;;;;;;;4.37;3.97;;;;;;;;;;4977497;28;20698;-73
2022/07/24 00:23:51;;;;;;;6.23;3.70;;;;;;;;;;4962520;28;20224;-73
2022/07/24 00:26:21;;;;;;;4.00;3.13;;;;;;;;;;4993022;28;20211;-73
2022/07/24 00:31:32;;;;;;;3.63;3.33;;;;;;;;;;4995048;28;20195;-73
2022/07/24 00:34:00;;;;;;;4.37;3.97;;;;;;;;;;4995170;28;20367;-73
2022/07/24 00:36:29;;;;;;;8.97;4.10;;;;;;;;;;4994868;28;20204;-73
2022/07/24 00:38:57;;;;;;;4.10;3.70;;;;;;;;;;4994642;28;20208;-73
2022/07/24 00:41:24;;;;;;;5.93;3.30;;;;;;;;;;4995053;28;20271;-73
2022/07/24 00:44:06;;;;;;;4.20;3.50;;;;;;;;;;4977164;28;20227;-73
2022/07/24 00:46:33;;;;;;;20.57;4.43;;;;;;;;;;4977003;28;20638;-73
2022/07/24 00:49:01;;;;;;;7.70;4.73;;;;;;;;;;4994333;28;20215;-73
2022/07/24 00:51:30;;;;;;;5.23;3.43;;;;;;;;;;4976588;28;20209;-73
2022/07/24 00:53:59;;;;;;;4.23;3.57;;;;;;;;;;4993635;28;20254;-73
2022/07/24 00:56:26;;;;;;;7.03;3.83;;;;;;;;;;4993977;28;20214;-73
2022/07/24 00:58:53;;;;;;;8.63;3.70;;;;;;;;;;4977088;28;20204;-73
2022/07/24 01:01:22;;;;;;;8.90;4.03;;;;;;;;;;4993777;28;20211;-73
2022/07/24 01:03:50;;;;;;;4.47;3.53;;;;;;;;;;4977187;28;20212;-73
2022/07/24 01:06:26;;;;;;;5.17;3.80;;;;;;;;;;4993648;28;20588;-73
2022/07/24 01:08:56;;;;;;;5.20;3.37;;;;;;;;;;4993924;28;20206;-73
2022/07/24 01:11:23;;;;;;;5.30;3.40;;;;;;;;;;4976500;28;20208;-73
2022/07/24 01:13:51;;;;;;;3.50;3.20;;;;;;;;;;4993207;28;20651;-73
2022/07/24 01:16:21;;;;;;;6.10;3.60;;;;;;;;;;4992643;28;20235;-73
2022/07/24 01:18:55;;;;;;;4.90;4.00;;;;;;;;;;4976615;28;20258;-73
2022/07/24 01:21:33;;;;;;;5.67;4.00;;;;;;;;;;4993895;28;20204;-73
2022/07/24 01:24:07;;;;;;;7.23;4.10;;;;;;;;;;4993838;28;20235;-73
2022/07/24 01:26:42;;;;;;;4.40;4.00;;;;;;;;;;4976546;28;20262;-73
2022/07/24 01:29:21;;;;;;;4.03;3.63;;;;;;;;;;4993645;28;20263;-73
2022/07/24 01:31:53;;;;;;;4.43;4.03;;;;;;;;;;4994553;28;20207;-73
2022/07/24 01:34:23;;;;;;;4.70;3.57;;;;;;;;;;4993277;28;20207;-74
2022/07/24 01:36:51;;;;;;;3.57;3.27;;;;;;;;;;4993474;28;20200;-73
2022/07/24 01:42:40;;;;;;;5.47;3.73;;;;;;;;;;4993830;28;20167;-73
2022/07/24 01:45:09;;;;;;;3.93;3.50;;;;;;;;;;4993671;28;20234;-74
2022/07/24 01:47:36;;;;;;;4.57;4.10;;;;;;;;;;4975483;28;20208;-73
2022/07/24 01:50:07;;;;;;;60.33;8.50;;;;;;;;;;5008464;28;20282;-73
2022/07/24 01:52:37;;;;;;;32.00;6.87;;;;;;;;;;4992905;28;20204;-73
2022/07/24 01:55:07;;;;;;;8.93;3.50;;;;;;;;;;5008486;28;20255;-73
2022/07/24 01:57:35;;;;;;;7.90;3.57;;;;;;;;;;4976784;28;20204;-74
2022/07/24 02:00:05;;;;;;;25.17;5.03;;;;;;;;;;4991605;28;20204;-73
2022/07/24 02:02:32;;;;;;;7.80;4.17;;;;;;;;;;4975614;28;20204;-72
2022/07/24 02:04:59;;;;;;;4.30;3.80;;;;;;;;;;4993405;28;20224;-71
2022/07/24 02:07:26;;;;;;;4.90;4.13;;;;;;;;;;4991384;28;20211;-73
2022/07/24 02:13:25;;;;;;;7.23;4.27;;;;;;;;;;4993281;28;20170;-73
2022/07/24 02:15:52;;;;;;;5.97;3.97;;;;;;;;;;4992697;28;20232;-73
2022/07/24 02:18:19;;;;;;;5.23;3.80;;;;;;;;;;4975630;28;20211;-73
2022/07/24 02:20:46;;;;;;;5.33;4.20;;;;;;;;;;4992829;28;20745;-74
2022/07/24 02:23:17;;;;;;;4.43;3.90;;;;;;;;;;4975798;28;20278;-73
2022/07/24 02:25:45;;;;;;;4.80;4.40;;;;;;;;;;5007255;28;20650;-73
2022/07/24 02:28:15;;;;;;;10.10;3.90;;;;;;;;;;4992629;28;20287;-74
2022/07/24 02:30:44;;;;;;;5.63;3.63;;;;;;;;;;4992617;28;20200;-73
2022/07/24 02:33:11;;;;;;;4.10;3.27;;;;;;;;;;4990602;28;20232;-74
2022/07/24 02:35:38;;;;;;;4.33;3.37;;;;;;;;;;4992966;28;20210;-73
2022/07/24 02:38:05;;;;;;;4.33;3.93;;;;;;;;;;4992471;28;20196;-74
2022/07/24 02:40:32;;;;;;;5.93;3.70;;;;;;;;;;4991114;28;20200;-73
2022/07/24 02:42:59;;;;;;;4.53;4.13;;;;;;;;;;4993018;28;20203;-73
2022/07/24 02:45:26;;;;;;;6.73;4.17;;;;;;;;;;5006882;28;20223;-73
2022/07/24 02:47:56;;;;;;;5.63;4.53;;;;;;;;;;4992309;28;20200;-74
2022/07/24 02:50:25;;;;;;;4.33;3.50;;;;;;;;;;4992441;28;20207;-74
2022/07/24 02:52:52;;;;;;;3.80;3.33;;;;;;;;;;4992338;28;20204;-74
2022/07/24 02:55:19;;;;;;;7.33;4.03;;;;;;;;;;5011657;28;20254;-74
2022/07/24 02:57:45;;;;;;;6.03;4.23;;;;;;;;;;5011862;28;20202;-73
2022/07/24 03:00:15;;;;;;;8.43;4.17;;;;;;;;;;4991102;28;20200;-73
2022/07/24 03:02:42;;;;;;;8.47;4.33;;;;;;;;;;4992280;28;20200;-73
2022/07/24 03:05:11;;;;;;;5.97;4.23;;;;;;;;;;4991244;28;20243;-73
2022/07/24 03:07:38;;;;;;;5.80;4.03;;;;;;;;;;4992612;28;20204;-74
2022/07/24 03:10:05;;;;;;;4.97;4.17;;;;;;;;;;4991475;28;20200;-73
2022/07/24 03:12:32;;;;;;;7.63;4.90;;;;;;;;;;4992119;28;20200;-74
2022/07/24 03:14:58;;;;;;;4.07;3.67;;;;;;;;;;4994154;28;20204;-74
2022/07/24 03:17:25;;;;;;;7.53;3.83;;;;;;;;;;4996460;28;20690;-73
2022/07/24 03:19:52;;;;;;;6.57;4.10;;;;;;;;;;4996002;28;20200;-73
2022/07/24 03:22:20;;;;;;;7.13;3.93;;;;;;;;;;4994603;28;20204;-73
2022/07/24 03:24:47;;;;;;;5.17;3.90;;;;;;;;;;4995659;28;20224;-73
2022/07/24 03:27:13;;;;;;;6.00;3.73;;;;;;;;;;5014905;28;20214;-73
2022/07/24 03:29:40;;;;;;;5.97;4.00;;;;;;;;;;5016670;28;20277;-73
2022/07/24 03:32:07;;;;;;;6.53;4.80;;;;;;;;;;5016119;28;20195;-73
2022/07/24 03:34:34;;;;;;;4.07;3.77;;;;;;;;;;5016135;28;20565;-73
2022/07/24 03:37:01;;;;;;;4.07;3.27;;;;;;;;;;5015894;28;20195;-73
2022/07/24 03:39:29;;;;;;;5.07;3.93;;;;;;;;;;5015638;28;20199;-73
2022/07/24 03:41:56;;;;;;;7.17;3.83;;;;;;;;;;5015581;28;20207;-73
2022/07/24 03:44:22;;;;;;;5.23;3.93;;;;;;;;;;4996535;28;20211;-73
2022/07/24 03:46:49;;;;;;;7.33;4.13;;;;;;;;;;4995848;28;20224;-73
2022/07/24 03:49:16;;;;;;;11.50;4.73;;;;;;;;;;4996065;28;20255;-73
2022/07/24 03:55:16;;;;;;;5.93;4.47;;;;;;;;;;4971863;28;20200;-73
2022/07/24 03:57:42;;;;;;;9.23;4.63;;;;;;;;;;4993949;28;20192;-73
2022/07/24 04:00:11;;;;;;;6.90;4.33;;;;;;;;;;4995548;28;20211;-74
2022/07/24 04:02:38;;;;;;;13.00;5.20;;;;;;;;;;4995412;28;20211;-73
2022/07/24 04:05:08;;;;;;;12.40;4.97;;;;;;;;;;5010998;28;20628;-73
2022/07/24 04:07:35;;;;;;;9.80;5.27;;;;;;;;;;5002219;28;20224;-74
2022/07/24 04:10:02;;;;;;;47.43;7.90;;;;;;;;;;4995254;28;20566;-73
2022/07/24 04:12:30;;;;;;;4.07;3.70;;;;;;;;;;4994987;28;20674;-75
2022/07/24 04:14:57;;;;;;;7.33;3.77;;;;;;;;;;4995140;28;20204;-74
2022/07/24 04:17:24;;;;;;;8.20;4.03;;;;;;;;;;4994962;28;20239;-73
2022/07/24 04:19:51;;;;;;;5.73;4.00;;;;;;;;;;4977606;28;20627;-74
2022/07/24 04:22:18;;;;;;;5.83;4.27;;;;;;;;;;4962402;28;20200;-74
2022/07/24 04:24:45;;;;;;;6.90;4.50;;;;;;;;;;4978410;28;20204;-74
2022/07/24 04:27:12;;;;;;;8.60;4.33;;;;;;;;;;4992784;28;20670;-74
2022/07/24 04:29:40;;;;;;;7.50;4.00;;;;;;;;;;4993887;28;20208;-73
2022/07/24 04:32:07;;;;;;;49.53;7.77;;;;;;;;;;4994760;28;20212;-74
2022/07/24 04:34:34;;;;;;;36.33;7.47;;;;;;;;;;4976133;28;20203;-74
2022/07/24 04:37:01;;;;;;;6.83;4.20;;;;;;;;;;4989540;28;20572;-74
2022/07/24 04:39:28;;;;;;;9.50;4.90;;;;;;;;;;4993835;28;20204;-74
2022/07/24 04:41:55;;;;;;;6.77;4.63;;;;;;;;;;4994594;28;20200;-74
2022/07/24 04:44:23;;;;;;;6.80;4.10;;;;;;;;;;4977455;28;20588;-73
2022/07/24 04:50:14;;;;;;;5.60;4.30;;;;;;;;;;4995099;28;20171;-73
2022/07/24 04:52:41;;;;;;;7.43;4.73;;;;;;;;;;4977104;28;20274;-74
2022/07/24 04:55:09;;;;;;;6.07;4.17;;;;;;;;;;4993064;28;20208;-74
2022/07/24 04:57:37;;;;;;;5.70;4.67;;;;;;;;;;4976845;28;20667;-74
2022/07/24 05:00:06;;;;;;;5.27;4.40;;;;;;;;;;4994199;28;20204;-74
2022/07/24 05:02:32;;;;;;;4.97;4.40;;;;;;;;;;4994230;28;20256;-73
2022/07/24 05:04:59;;;;;;;4.57;4.13;;;;;;;;;;4992782;28;20254;-74
2022/07/24 05:07:28;;;;;;;4.83;4.27;;;;;;;;;;4975903;28;20200;-74
2022/07/24 05:13:23;;;;;;;11.97;4.70;;;;;;;;;;4994683;28;20219;-74
2022/07/24 05:15:50;;;;;;;8.93;4.70;;;;;;;;;;4993915;28;20228;-74
2022/07/24 05:18:18;;;;;;;9.70;4.77;;;;;;;;;;4993948;28;20204;-73
2022/07/24 05:20:45;;;;;;;6.53;4.83;;;;;;;;;;4993694;28;20296;-74
2022/07/24 05:23:13;;;;;;;9.97;4.80;;;;;;;;;;4993440;28;20219;-74
2022/07/24 05:25:40;;;;;;;8.87;5.13;;;;;;;;;;4993917;28;20239;-73
2022/07/24 05:28:07;;;;;;;7.87;5.90;;;;;;;;;;4976530;28;20204;-74
2022/07/24 05:30:35;;;;;;;7.83;5.33;;;;;;;;;;4960619;28;20262;-73
2022/07/24 05:33:05;;;;;;;7.90;5.87;;;;;;;;;;4993505;28;20606;-73
2022/07/24 05:35:34;;;;;;;9.87;5.73;;;;;;;;;;4974350;28;20192;-73
2022/07/24 05:38:00;;;;;;;6.63;5.47;;;;;;;;;;4961089;28;20189;-73
2022/07/24 05:40:29;;;;;;;4.83;4.43;;;;;;;;;;4992669;28;20230;-73
2022/07/24 05:42:56;;;;;;;6.60;4.67;;;;;;;;;;4993363;28;20208;-74
2022/07/24 05:45:23;;;;;;;7.00;5.40;;;;;;;;;;4993962;28;20223;-73
2022/07/24 05:47:51;;;;;;;8.33;5.60;;;;;;;;;;5012062;28;20257;-74
2022/07/24 05:50:18;;;;;;;7.43;5.20;;;;;;;;;;4979632;28;20212;-73
2022/07/24 05:52:45;;;;;;;6.73;5.57;;;;;;;;;;4979133;28;20204;-73
2022/07/24 05:55:12;;;;;;;6.27;4.93;;;;;;;;;;4995285;28;20207;-74
2022/07/24 05:57:40;;;;;;;4.97;4.50;;;;;;;;;;5012774;28;20207;-73
2022/07/24 06:00:09;;;;;;;5.07;4.43;;;;;;;;;;5012755;28;20235;-74
2022/07/24 06:02:36;;;;;;;5.33;4.80;;;;;;;;;;4995994;28;20290;-73
2022/07/24 06:05:03;;;;;;;7.17;5.57;;;;;;;;;;4993213;28;20274;-74
2022/07/24 06:08:05;;;;;;;7.47;6.43;;;;;;;;;;5011080;28;20230;-73
2022/07/24 06:10:32;;;;;;;8.73;7.83;;;;;;;;;;4985472;28;20199;-74
2022/07/24 06:13:03;;;;;;;11.17;10.17;;;;;;;;;;5011315;28;20283;-74
2022/07/24 06:15:30;;;;;;;11.93;10.47;;;;;;;;;;5002677;28;20227;-73
2022/07/24 06:17:57;;;;;;;13.73;11.83;;;;;;;;;;4994862;28;20247;-74
2022/07/24 06:20:24;;;;;;;13.57;12.37;;;;;;;;;;4992514;28;20559;-74
2022/07/24 06:22:51;;;;;;;16.50;13.10;;;;;;;;;;4993684;28;20203;-74
2022/07/24 06:25:19;;;;;;;13.23;11.80;;;;;;;;;;5010748;28;20203;-74
2022/07/24 06:27:49;;;;;;;13.30;11.70;;;;;;;;;;4994950;28;20203;-74
2022/07/24 06:30:36;;;;;;;13.07;10.73;;;;;;;;;;5011627;28;20229;-73
2022/07/24 06:33:03;;;;;;;14.00;12.48;;;;;;;;;;5011543;28;20191;-75
2022/07/24 06:35:32;;;;;;;16.55;11.80;;;;;;;;;;4992032;28;20211;-73
2022/07/24 06:38:01;;;;;;;11.80;10.80;;;;;;;;;;5011484;28;20203;-73
2022/07/24 06:40:28;;;;;;;13.70;10.43;;;;;;;;;;5010569;28;20198;-74
2022/07/24 06:42:55;;;;;;;13.18;11.35;;;;;;;;;;5011306;28;20221;-74
2022/07/24 06:45:22;;;;;;;14.20;11.13;;;;;;;;;;4992754;28;20211;-74
2022/07/24 06:47:51;;;;;;;10.63;9.52;;;;;;;;;;4982992;28;20687;-74
2022/07/24 06:50:18;;;;;;;10.85;9.93;;;;;;;;;;4975096;28;20207;-74
2022/07/24 06:52:46;;;;;;;12.38;9.65;;;;;;;;;;4959043;28;20714;-74
2022/07/24 06:55:14;;;;;;;10.93;9.20;;;;;;;;;;4995217;28;20203;-74
2022/07/24 07:01:02;;;;;;;10.10;9.10;;;;;;;;;;5012263;28;20217;-73
2022/07/24 07:03:30;;;;;;;10.95;9.85;;;;;;;;;;5008418;28;20197;-74
2022/07/24 07:05:58;;;;;;;14.02;10.18;;;;;;;;;;5012469;28;20636;-73
2022/07/24 07:08:24;;;;;;;16.90;9.00;;;;;;;;;;5011071;28;20203;-73
2022/07/24 07:10:52;;;;;;;11.45;9.52;;;;;;;;;;4985801;28;20536;-74
2022/07/24 07:13:19;;;;;;;11.38;10.25;;;;;;;;;;4974792;28;20200;-73
2022/07/24 07:15:46;;;;;;;84.30;14.48;;;;;;;;;;4992194;28;20574;-74
2022/07/24 07:18:13;;;;;;;14.07;10.30;;;;;;;;;;4975076;28;20695;-73
2022/07/24 07:20:42;;;;;;;13.32;11.18;;;;;;;;;;5006095;28;20678;-73
2022/07/24 07:26:59;;;;;;;12.25;9.93;;;;;;;;;;4990670;28;20701;-73
2022/07/24 07:29:26;;;;;;;13.75;9.70;;;;;;;;;;5000346;28;20555;-72
2022/07/24 07:31:53;;;;;;;13.98;10.40;;;;;;;;;;5011030;28;20195;-72
2022/07/24 07:34:20;;;;;;;14.98;11.52;;;;;;;;;;5011270;28;20195;-73
2022/07/24 07:36:48;;;;;;;11.55;10.10;;;;;;;;;;4993911;28;20211;-73
2022/07/24 07:39:15;;;;;;;10.48;9.27;;;;;;;;;;5011344;28;20203;-73
2022/07/24 07:41:42;;;;;;;10.27;9.35;;;;;;;;;;4977595;28;20283;-73
2022/07/24 07:44:09;;;;;;;11.77;10.63;;;;;;;;;;4994010;28;20600;-73
2022/07/24 07:46:36;;;;;;;16.83;9.95;;;;;;;;;;5011376;28;20224;-73
2022/07/24 07:49:02;;;;;;;219.10;26.65;;;;;;;;;;5011356;28;20199;-73
2022/07/24 07:51:29;;;;;;;57.28;14.50;;;;;;;;;;5011504;28;20579;-73
2022/07/24 07:53:58;;;;;;;12.15;9.48;;;;;;;;;;4994268;28;20208;-73
2022/07/24 07:56:25;;;;;;;17.20;10.18;;;;;;;;;;4993924;28;20235;-73
2022/07/24 07:58:52;;;;;;;12.48;10.23;;;;;;;;;;4994268;28;20261;-73
2022/07/24 08:01:19;;;;;;;11.40;9.32;;;;;;;;;;4995271;28;20282;-73
2022/07/24 08:03:46;;;;;;;13.55;9.35;;;;;;;;;;5013554;28;20207;-80
2022/07/24 08:06:13;;;;;;;10.57;9.68;;;;;;;;;;5003801;28;20246;-78
2022/07/24 08:08:40;;;;;;;9.43;8.60;;;;;;;;;;4997328;28;20211;-80
2022/07/24 08:11:09;;;;;;;9.13;8.15;;;;;;;;;;5015598;28;20350;-80
2022/07/24 08:13:36;;;;;;;9.40;8.52;;;;;;;;;;5013706;28;20208;-80
2022/07/24 08:16:03;;;;;;;11.15;7.88;;;;;;;;;;5012602;28;20259;-81
2022/07/24 08:18:30;;;;;;;224.18;30.23;;;;;;;;;;5014727;28;20199;-79
2022/07/24 08:20:57;;;;;;;10.27;8.45;;;;;;;;;;4963788;28;20203;-79
2022/07/24 08:23:24;;;;;;;10.40;8.27;;;;;;;;;;4995514;28;20195;-79
2022/07/24 08:25:54;;;;;;;55.97;13.48;;;;;;;;;;4981355;28;20206;-85
2022/07/24 08:28:22;;;;;;;11.18;8.13;;;;;;;;;;5004256;28;20200;-82
2022/07/24 08:30:49;;;;;;;11.77;8.52;;;;;;;;;;4997477;28;20200;-85
2022/07/24 08:33:17;;;;;;;10.00;8.00;;;;;;;;;;5012859;28;20698;-80
2022/07/24 08:39:06;;;;;;;11.68;9.15;;;;;;;;;;5015462;28;20186;-90
2022/07/24 08:41:35;;;;;;;10.30;9.20;;;;;;;;;;5007249;28;20251;-89
2022/07/24 08:44:05;;;;;;;13.82;8.98;;;;;;;;;;4977873;28;20635;-82
2022/07/24 08:46:32;;;;;;;9.73;8.77;;;;;;;;;;4976669;28;20274;-84
2022/07/24 08:49:01;;;;;;;10.45;9.35;;;;;;;;;;4993684;28;20211;-86
2022/07/24 08:51:35;;;;;;;13.02;10.15;;;;;;;;;;4994698;28;20212;-85
2022/07/24 08:54:03;;;;;;;10.45;9.38;;;;;;;;;;4994804;28;20207;-88
2022/07/24 08:56:33;;;;;;;12.05;10.52;;;;;;;;;;5012221;28;20262;-87
2022/07/24 08:59:00;;;;;;;12.02;11.05;;;;;;;;;;5014664;28;20211;-91
2022/07/24 09:01:38;;;;;;;14.40;13.10;;;;;;;;;;5014470;28;20207;-89
2022/07/24 09:04:06;;;;;;;13.27;11.98;;;;;;;;;;4998760;28;20203;-88
2022/07/24 09:06:33;;;;;;;12.50;11.20;;;;;;;;;;5007961;28;20686;-92
2022/07/24 09:09:03;;;;;;;12.88;11.50;;;;;;;;;;4997199;28;20273;-88
2022/07/24 09:11:31;;;;;;;11.85;10.65;;;;;;;;;;5015044;28;20207;-91
2022/07/24 09:16:48;;;;;;;14.15;11.35;;;;;;;;;;5013769;28;20701;-93
2022/07/24 09:19:16;;;;;;;14.07;12.63;;;;;;;;;;5012621;28;20207;-84
2022/07/24 09:21:52;;;;;;;13.85;12.00;;;;;;;;;;4967369;28;20258;-91
2022/07/24 09:24:21;;;;;;;12.80;11.63;;;;;;;;;;4994134;28;20254;-87
2022/07/24 09:26:50;;;;;;;12.30;11.18;;;;;;;;;;4994757;28;20255;-87
2022/07/24 09:29:20;;;;;;;12.70;11.43;;;;;;;;;;4993701;28;20204;-87
2022/07/24 09:31:52;;;;;;;12.30;11.05;;;;;;;;;;4994514;28;20208;-83
2022/07/24 09:37:43;;;;;;;11.85;10.82;;;;;;;;;;5001355;28;20163;-81
2022/07/24 09:43:36;;;;;;;12.70;11.35;;;;;;;;;;5010096;28;20198;-83
2022/07/24 09:46:06;;;;;;;12.85;11.75;;;;;;;;;;5014405;28;20253;-88
2022/07/24 09:56:08;;;;;;;12.88;11.77;;;;;;;;;;5011663;28;20714;-80
2022/07/24 09:58:38;;;;;;;12.27;11.07;;;;;;;;;;4993671;28;20200;-81
2022/07/24 10:01:07;;;;;;;12.27;11.07;;;;;;;;;;4978414;28;20195;-81
2022/07/24 10:03:38;;;;;;;11.32;10.32;;;;;;;;;;4995106;28;20574;-81
2022/07/24 10:06:07;;;;;;;11.82;10.93;;;;;;;;;;5011377;28;20199;-82
2022/07/24 10:08:36;;;;;;;11.70;10.60;;;;;;;;;;4995182;28;20230;-82
2022/07/24 10:11:04;;;;;;;10.55;9.65;;;;;;;;;;5012422;28;20609;-83
2022/07/24 10:13:32;;;;;;;15.30;11.05;;;;;;;;;;4995298;28;20286;-83
2022/07/24 10:16:31;;;;;;;16.95;11.00;;;;;;;;;;4974648;28;20216;-83
2022/07/24 10:19:00;;;;;;;11.95;10.80;;;;;;;;;;4948151;28;20592;-83
2022/07/24 10:21:28;;;;;;;14.07;10.85;;;;;;;;;;4970956;28;20627;-81
2022/07/24 10:24:18;;;;;;;15.48;10.50;;;;;;;;;;4971917;28;20224;-81
2022/07/24 10:30:08;;;;;;;12.85;11.60;;;;;;;;;;4933728;29;20166;-79
2022/07/24 10:36:00;;;;;;;14.20;11.77;;;;;;;;;;4973571;28;20176;-80
2022/07/24 10:38:31;;;;;;;13.10;11.68;;;;;;;;;;4973942;28;20553;-79
2022/07/24 10:41:04;;;;;;;14.27;12.27;;;;;;;;;;4956298;28;20291;-79
2022/07/24 10:43:31;;;;;;;13.27;11.98;;;;;;;;;;4974056;28;20216;-80
2022/07/24 10:46:15;;;;;;;14.05;12.57;;;;;;;;;;4973408;28;20200;-80
2022/07/24 10:52:05;;;;;;;13.95;12.85;;;;;;;;;;4974164;28;20219;-82
2022/07/24 10:54:34;;;;;;;13.82;12.57;;;;;;;;;;4973166;28;20216;-88
2022/07/24 10:57:01;;;;;;;14.45;12.90;;;;;;;;;;4972548;28;20197;-85
2022/07/24 10:59:36;;;;;;;14.18;12.68;;;;;;;;;;4972021;28;20204;-87
2022/07/24 11:02:28;;;;;;;14.70;13.32;;;;;;;;;;4959847;28;20201;-88
2022/07/24 11:05:31;;;;;;;14.60;13.20;;;;;;;;;;4952942;29;20210;-78
2022/07/24 11:08:31;;;;;;;15.15;13.65;;;;;;;;;;4951232;29;20228;-87
2022/07/24 11:11:08;;;;;;;14.95;13.48;;;;;;;;;;4954395;29;20727;-89
2022/07/24 11:13:52;;;;;;;14.13;12.77;;;;;;;;;;4956727;29;20247;-82
2022/07/24 11:20:02;;;;;;;14.20;12.93;;;;;;;;;;4985935;28;20311;-82
2022/07/24 11:22:39;;;;;;;13.10;11.88;;;;;;;;;;4974870;28;20215;-82
2022/07/24 11:25:13;;;;;;;13.00;11.80;;;;;;;;;;4992621;28;20207;-83
2022/07/24 11:27:52;;;;;;;13.07;11.88;;;;;;;;;;4989197;28;20232;-82
2022/07/24 11:30:20;;;;;;;13.15;12.05;;;;;;;;;;4992011;28;20211;-82
2022/07/24 11:32:47;;;;;;;12.65;11.50;;;;;;;;;;4992395;28;20204;-82
2022/07/24 11:35:15;;;;;;;12.02;10.80;;;;;;;;;;4959009;28;20200;-84
2022/07/24 11:37:42;;;;;;;15.85;12.65;;;;;;;;;;4995219;28;20197;-81
2022/07/24 11:40:17;;;;;;;13.85;11.45;;;;;;;;;;4978409;28;20234;-82
2022/07/24 11:42:44;;;;;;;12.45;11.15;;;;;;;;;;4995716;28;20605;-82
2022/07/24 11:45:12;;;;;;;13.48;10.48;;;;;;;;;;4996058;28;20551;-83
2022/07/24 11:47:40;;;;;;;11.93;10.73;;;;;;;;;;4995594;28;20228;-82
2022/07/24 11:50:09;;;;;;;11.75;10.55;;;;;;;;;;4978498;28;20196;-82
2022/07/24 11:52:38;;;;;;;12.15;10.98;;;;;;;;;;4978527;28;20215;-82
2022/07/24 11:55:08;;;;;;;11.73;10.55;;;;;;;;;;4995609;28;20200;-82
2022/07/24 11:57:39;;;;;;;10.90;9.88;;;;;;;;;;4995499;28;20697;-82
2022/07/24 12:03:28;;;;;;;9.35;8.45;;;;;;;;;;4995809;28;20210;-82
2022/07/24 12:06:09;;;;;;;11.18;10.15;;;;;;;;;;4968896;28;20204;-79
2022/07/24 12:08:38;;;;;;;10.65;8.57;;;;;;;;;;4996864;28;20289;-81
2022/07/24 12:14:31;;;;;;;9.65;8.85;;;;;;;;;;4995606;28;20598;-82
2022/07/24 12:16:59;;;;;;;10.40;9.25;;;;;;;;;;4977786;28;20207;-81
2022/07/24 12:19:26;;;;;;;8.95;7.97;;;;;;;;;;4995214;28;20239;-81
2022/07/24 12:21:55;;;;;;;9.27;7.75;;;;;;;;;;4978024;28;20621;-82
2022/07/24 12:24:22;;;;;;;8.65;7.72;;;;;;;;;;4978559;28;20609;-81
2022/07/24 12:26:51;;;;;;;9.13;8.20;;;;;;;;;;4977762;28;20290;-83
2022/07/24 12:32:53;;;;;;;10.35;8.40;;;;;;;;;;4996458;28;20203;-91
2022/07/24 12:35:21;;;;;;;12.25;8.00;;;;;;;;;;4980199;28;20199;-84
2022/07/24 12:37:49;;;;;;;11.85;7.88;;;;;;;;;;4996215;28;20204;-91
2022/07/24 12:40:24;;;;;;;10.75;8.07;;;;;;;;;;4996288;28;20618;-91
2022/07/24 12:43:08;;;;;;;9.63;7.35;;;;;;;;;;4977685;28;20704;-80
2022/07/24 12:45:35;;;;;;;12.07;7.78;;;;;;;;;;4979304;28;20295;-80
2022/07/24 12:48:26;;;;;;;7.30;6.50;;;;;;;;;;4960959;28;20598;-79
2022/07/24 13:04:23;;;;;;;12.88;7.70;;;;;;;;;;5014236;28;20183;-79
2022/07/24 13:06:52;;;;;;;8.23;7.10;;;;;;;;;;5013995;28;20206;-79
2022/07/24 13:09:19;;;;;;;9.27;6.68;;;;;;;;;;4996240;28;20285;-80
2022/07/24 13:11:48;;;;;;;6.65;6.05;;;;;;;;;;5014122;28;20199;-88
2022/07/24 13:14:17;;;;;;;10.80;6.47;;;;;;;;;;5014431;28;20286;-85
2022/07/24 13:16:47;;;;;;;8.65;6.72;;;;;;;;;;5014594;28;20207;-91
2022/07/24 13:19:14;;;;;;;10.80;6.78;;;;;;;;;;5014139;28;20243;-87
2022/07/24 13:21:44;;;;;;;6.80;6.13;;;;;;;;;;5014444;28;20207;-88
2022/07/24 13:24:14;;;;;;;7.03;6.43;;;;;;;;;;5013951;28;20203;-87
2022/07/24 13:27:00;;;;;;;7.82;6.20;;;;;;;;;;5012583;28;20794;-88
2022/07/24 13:32:51;;;;;;;7.28;5.88;;;;;;;;;;4994999;28;20159;-89
2022/07/24 13:38:41;;;;;;;10.27;6.00;;;;;;;;;;4994305;28;20167;-87
2022/07/24 13:41:08;;;;;;;10.43;6.70;;;;;;;;;;4994183;28;20208;-82
2022/07/24 13:43:35;;;;;;;7.10;6.18;;;;;;;;;;4976644;28;20274;-86
2022/07/24 13:46:02;;;;;;;8.55;6.20;;;;;;;;;;4977632;28;20204;-93
2022/07/24 13:48:31;;;;;;;7.05;6.07;;;;;;;;;;4995210;28;20224;-89
2022/07/24 13:50:59;;;;;;;7.57;5.85;;;;;;;;;;4993647;28;20613;-94
2022/07/24 13:53:26;;;;;;;7.65;5.78;;;;;;;;;;4976703;28;20207;-87
2022/07/24 13:55:55;;;;;;;6.60;6.05;;;;;;;;;;4994210;28;20207;-91
2022/07/24 13:58:27;;;;;;;7.32;6.00;;;;;;;;;;4978545;28;20682;-96
2022/07/24 14:04:16;;;;;;;7.53;5.65;;;;;;;;;;4993557;28;20171;-81
2022/07/24 14:06:43;;;;;;;5.00;4.57;;;;;;;;;;4993633;28;20204;-83
2022/07/24 14:09:10;;;;;;;5.85;4.65;;;;;;;;;;4976214;28;20276;-84
2022/07/24 14:11:40;;;;;;;5.55;5.03;;;;;;;;;;4993430;28;20204;-82
2022/07/24 14:14:09;;;;;;;5.28;4.85;;;;;;;;;;4991474;28;20214;-90
2022/07/24 14:16:36;;;;;;;5.38;4.85;;;;;;;;;;4993782;28;20215;-94
2022/07/24 14:22:47;;;;;;;5.07;4.60;;;;;;;;;;4986093;28;20254;-88
2022/07/24 14:25:15;;;;;;;6.40;4.82;;;;;;;;;;4993414;28;20216;-81
2022/07/24 14:31:07;;;;;;;5.90;4.68;;;;;;;;;;4994751;28;20185;-88
2022/07/24 14:33:35;;;;;;;5.38;4.30;;;;;;;;;;4994709;28;20606;-90
2022/07/24 14:36:04;;;;;;;7.75;5.30;;;;;;;;;;4993909;28;20695;-88
2022/07/24 14:38:34;;;;;;;6.28;5.70;;;;;;;;;;4991736;28;20224;-89
2022/07/24 14:41:03;;;;;;;6.38;4.72;;;;;;;;;;4961117;28;20203;-91
2022/07/24 14:43:38;;;;;;;5.90;5.10;;;;;;;;;;4992841;28;20204;-93
2022/07/24 14:46:08;;;;;;;5.10;4.60;;;;;;;;;;4978423;28;20196;-90
2022/07/24 14:48:36;;;;;;;8.82;5.68;;;;;;;;;;4976599;28;20231;-86
2022/07/24 14:51:03;;;;;;;8.00;4.75;;;;;;;;;;4975789;28;20258;-81
2022/07/24 14:53:31;;;;;;;5.03;4.55;;;;;;;;;;4976133;28;20223;-83
2022/07/24 14:55:58;;;;;;;5.15;4.65;;;;;;;;;;4960502;28;20204;-92
2022/07/24 14:58:27;;;;;;;5.95;5.10;;;;;;;;;;4993271;28;20295;-90
2022/07/24 15:00:56;;;;;;;5.60;4.40;;;;;;;;;;4976715;28;20685;-88
2022/07/24 15:06:54;;;;;;;12.18;6.10;;;;;;;;;;4993422;28;20171;-94
2022/07/24 15:09:25;;;;;;;4.93;4.53;;;;;;;;;;4992685;28;20231;-91
2022/07/24 15:11:52;;;;;;;7.30;5.15;;;;;;;;;;4995365;28;20210;-85
2022/07/24 15:17:42;;;;;;;5.18;4.72;;;;;;;;;;4996730;28;20164;-87
2022/07/24 15:20:13;;;;;;;5.30;4.80;;;;;;;;;;4996137;28;20208;-87
2022/07/24 15:22:43;;;;;;;5.85;5.35;;;;;;;;;;4996246;28;20224;-85
2022/07/24 15:25:11;;;;;;;5.55;5.05;;;;;;;;;;4994804;28;20235;-90
2022/07/24 15:27:38;;;;;;;6.40;4.85;;;;;;;;;;4995911;28;20204;-81
2022/07/24 15:30:06;;;;;;;8.43;4.80;;;;;;;;;;4996393;28;20227;-81
2022/07/24 15:35:55;;;;;;;6.80;5.43;;;;;;;;;;4996684;28;20229;-85
2022/07/24 15:38:49;;;;;;;7.43;6.13;;;;;;;;;;4979163;28;20291;-86
2022/07/24 15:41:16;;;;;;;6.22;5.43;;;;;;;;;;4996039;28;20565;-84
2022/07/24 15:43:43;;;;;;;8.27;5.95;;;;;;;;;;4963058;28;20211;-82
2022/07/24 15:46:10;;;;;;;10.15;5.15;;;;;;;;;;4995750;28;20200;-77
2022/07/24 15:48:37;;;;;;;5.43;4.65;;;;;;;;;;4988598;28;20306;-76
2022/07/24 15:51:04;;;;;;;6.93;6.00;;;;;;;;;;5015080;28;20205;-76
2022/07/24 15:53:32;;;;;;;6.07;5.35;;;;;;;;;;5015204;28;20242;-76
2022/07/24 15:56:00;;;;;;;5.88;5.30;;;;;;;;;;4997629;28;20187;-76
2022/07/24 15:58:28;;;;;;;8.80;5.55;;;;;;;;;;4997775;28;20269;-77
2022/07/24 16:00:54;;;;;;;9.88;5.25;;;;;;;;;;4997385;28;20211;-77
2022/07/24 16:03:21;;;;;;;6.05;4.80;;;;;;;;;;5015011;28;20204;-76
2022/07/24 16:05:48;;;;;;;7.25;5.47;;;;;;;;;;4995637;28;20187;-77
2022/07/24 16:08:15;;;;;;;5.80;5.13;;;;;;;;;;4997330;28;20195;-77
2022/07/24 16:10:42;;;;;;;7.70;5.65;;;;;;;;;;5001272;28;20203;-77
2022/07/24 16:13:11;;;;;;;5.95;5.45;;;;;;;;;;5004456;28;20689;-77
2022/07/24 16:15:39;;;;;;;6.88;5.90;;;;;;;;;;5013039;28;20577;-76
2022/07/24 16:18:08;;;;;;;7.88;5.85;;;;;;;;;;4997952;28;20207;-74
2022/07/24 16:23:56;;;;;;;7.55;4.53;;;;;;;;;;5003442;28;20639;-77
2022/07/24 16:26:24;;;;;;;7.45;5.97;;;;;;;;;;5015341;28;20199;-78
2022/07/24 16:28:53;;;;;;;6.82;6.13;;;;;;;;;;4997197;28;20637;-78
2022/07/24 16:31:20;;;;;;;8.73;6.05;;;;;;;;;;4995517;28;20195;-78
2022/07/24 16:33:47;;;;;;;6.20;5.57;;;;;;;;;;4996322;28;20253;-76
2022/07/24 16:36:15;;;;;;;7.00;5.70;;;;;;;;;;4997002;28;20199;-76
2022/07/24 16:38:44;;;;;;;6.55;5.82;;;;;;;;;;4996542;28;20230;-77
2022/07/24 16:41:11;;;;;;;6.43;4.72;;;;;;;;;;4997134;28;20227;-76